createdAt,value
2019-01-24T00:00:10.300Z,20.00
2019-01-24T00:02:38.804Z,15.90
2019-01-24T00:05:06.507Z,17.03
2019-01-24T00:07:33.131Z,17.10
2019-01-24T00:09:59.624Z,18.57
2019-01-24T00:12:26.226Z,15.00
2019-01-24T00:14:53.001Z,17.87
2019-01-24T00:17:19.479Z,14.03
2019-01-24T00:19:45.968Z,16.27
2019-01-24T00:22:12.429Z,18.67
2019-01-24T00:24:38.886Z,20.90
2019-01-24T00:27:05.552Z,17.73
2019-01-24T00:29:32.107Z,15.63
2019-01-24T00:31:59.660Z,19.17
2019-01-24T00:34:26.293Z,25.17
2019-01-24T00:36:52.912Z,19.40
2019-01-24T00:39:21.195Z,16.23
2019-01-24T00:41:47.989Z,15.17
2019-01-24T00:44:14.567Z,13.90
2019-01-24T00:46:41.231Z,16.07
2019-01-24T00:49:07.908Z,16.07
2019-01-24T00:51:34.398Z,18.43
2019-01-24T00:54:00.995Z,15.50
2019-01-24T00:56:27.450Z,15.47
2019-01-24T00:58:57.124Z,16.87
2019-01-24T01:01:23.599Z,14.27
2019-01-24T01:03:50.073Z,16.30
2019-01-24T01:06:16.633Z,14.37
2019-01-24T01:08:43.089Z,14.97
2019-01-24T01:11:09.622Z,14.27
2019-01-24T01:13:36.163Z,13.57
2019-01-24T01:16:05.502Z,15.77
2019-01-24T01:18:32.108Z,14.53
2019-01-24T01:20:58.603Z,14.00
2019-01-24T01:23:25.639Z,14.47
2019-01-24T01:25:52.321Z,15.43
2019-01-24T01:28:18.840Z,13.60
2019-01-24T01:30:45.470Z,14.37
2019-01-24T01:33:11.992Z,15.40
2019-01-24T01:35:38.656Z,11.17
2019-01-24T01:38:05.233Z,16.57
2019-01-24T01:40:31.833Z,11.33
2019-01-24T01:42:58.823Z,13.17
2019-01-24T01:45:27.668Z,19.37
2019-01-24T01:47:54.215Z,16.20
2019-01-24T01:50:23.117Z,12.67
2019-01-24T01:52:49.778Z,12.17
2019-01-24T01:55:16.230Z,12.10
2019-01-24T01:57:42.764Z,18.40
2019-01-24T02:00:14.252Z,14.03
2019-01-24T02:02:43.506Z,14.57
2019-01-24T02:05:11.434Z,12.97
2019-01-24T02:07:37.897Z,15.23
2019-01-24T02:10:09.195Z,11.80
2019-01-24T02:12:38.054Z,13.83
2019-01-24T02:15:08.349Z,12.67
2019-01-24T02:17:34.829Z,13.83
2019-01-24T02:20:01.663Z,8.37
2019-01-24T02:22:28.530Z,12.23
2019-01-24T02:24:57.123Z,10.50
2019-01-24T02:27:23.818Z,14.57
2019-01-24T02:29:50.342Z,11.53
2019-01-24T02:32:19.170Z,12.10
2019-01-24T02:34:49.684Z,12.03
2019-01-24T02:37:14.238Z,11.00
2019-01-24T02:39:40.780Z,11.23
2019-01-24T02:42:07.363Z,12.40
2019-01-24T02:44:35.280Z,11.07
2019-01-24T02:47:01.852Z,7.33
2019-01-24T02:49:30.692Z,9.27
2019-01-24T02:51:57.164Z,10.13
2019-01-24T02:54:23.810Z,9.97
2019-01-24T02:56:50.287Z,15.13
2019-01-24T02:59:17.012Z,13.07
2019-01-24T03:01:43.575Z,12.07
2019-01-24T03:04:10.020Z,12.63
2019-01-24T03:06:36.516Z,10.87
2019-01-24T03:09:05.044Z,14.33
2019-01-24T03:11:31.624Z,11.67
2019-01-24T03:13:58.349Z,15.03
2019-01-24T03:16:24.813Z,11.23
2019-01-24T03:18:51.340Z,8.67
2019-01-24T03:21:17.863Z,11.60
2019-01-24T03:23:44.423Z,10.67
2019-01-24T03:26:10.882Z,11.47
2019-01-24T03:28:40.570Z,9.37
2019-01-24T03:31:07.366Z,13.57
2019-01-24T03:33:34.008Z,8.83
2019-01-24T03:36:00.467Z,8.30
2019-01-24T03:38:26.986Z,9.27
2019-01-24T03:40:53.814Z,8.93
2019-01-24T03:43:20.757Z,9.67
2019-01-24T03:45:47.412Z,11.50
2019-01-24T03:48:14.000Z,11.87
2019-01-24T03:50:41.118Z,7.47
2019-01-24T03:53:07.935Z,5.80
2019-01-24T03:55:34.825Z,12.00
2019-01-24T03:58:02.050Z,8.53
2019-01-24T04:00:29.022Z,8.80
2019-01-24T04:02:55.883Z,8.43
2019-01-24T04:05:22.687Z,8.50
2019-01-24T04:07:49.644Z,9.53
2019-01-24T04:10:20.212Z,10.57
2019-01-24T04:12:47.137Z,6.83
2019-01-24T04:15:17.970Z,7.83
2019-01-24T04:17:45.866Z,10.27
2019-01-24T04:20:12.748Z,15.43
2019-01-24T04:22:39.328Z,12.30
2019-01-24T04:25:07.119Z,9.47
2019-01-24T04:27:33.741Z,5.83
2019-01-24T04:30:00.349Z,10.63
2019-01-24T04:32:27.064Z,12.80
2019-01-24T04:34:53.524Z,9.20
2019-01-24T04:37:23.225Z,8.40
2019-01-24T04:39:49.890Z,9.87
2019-01-24T04:42:16.838Z,8.80
2019-01-24T04:44:43.313Z,9.97
2019-01-24T04:47:09.776Z,7.93
2019-01-24T04:49:37.177Z,9.60
2019-01-24T04:52:03.604Z,7.87
2019-01-24T04:54:30.285Z,10.03
2019-01-24T04:56:57.134Z,8.80
2019-01-24T04:59:23.608Z,8.07
2019-01-24T05:01:50.106Z,7.40
2019-01-24T05:04:17.852Z,10.00
2019-01-24T05:06:44.300Z,11.60
2019-01-24T05:09:10.811Z,9.87
2019-01-24T05:11:37.479Z,9.03
2019-01-24T05:14:03.974Z,10.57
2019-01-24T05:16:33.211Z,10.63
2019-01-24T05:19:04.625Z,8.23
2019-01-24T05:21:31.170Z,10.40
2019-01-24T05:23:57.708Z,8.00
2019-01-24T05:26:24.454Z,10.63
2019-01-24T05:28:50.977Z,8.23
2019-01-24T05:31:17.438Z,6.80
2019-01-24T05:33:44.167Z,11.47
2019-01-24T05:36:10.717Z,7.83
2019-01-24T05:38:37.361Z,8.43
2019-01-24T05:41:03.867Z,10.80
2019-01-24T05:43:31.093Z,12.40
2019-01-24T05:45:57.622Z,10.43
2019-01-24T05:48:24.270Z,12.67
2019-01-24T05:50:50.983Z,9.57
2019-01-24T05:53:17.741Z,12.57
2019-01-24T05:55:47.820Z,10.93
2019-01-24T05:58:16.672Z,10.47
2019-01-24T06:00:44.824Z,20.70
2019-01-24T06:03:11.789Z,12.40
2019-01-24T06:05:41.816Z,10.77
2019-01-24T06:08:07.518Z,11.47
2019-01-24T06:10:34.407Z,11.73
2019-01-24T06:13:01.052Z,11.90
2019-01-24T06:15:27.869Z,11.87
2019-01-24T06:17:54.776Z,17.03
2019-01-24T06:20:23.591Z,23.57
2019-01-24T06:22:53.294Z,16.53
2019-01-24T06:25:20.122Z,17.13
2019-01-24T06:27:46.995Z,11.33
2019-01-24T06:30:22.440Z,12.83
2019-01-24T06:32:49.469Z,11.90
2019-01-24T06:35:16.451Z,12.47
2019-01-24T06:37:43.080Z,12.77
2019-01-24T06:40:13.939Z,18.20
2019-01-24T06:42:40.872Z,11.93
2019-01-24T06:45:12.382Z,17.83
2019-01-24T06:47:40.695Z,15.57
2019-01-24T06:50:11.088Z,22.23
2019-01-24T06:52:38.311Z,14.60
2019-01-24T06:55:10.523Z,15.90
2019-01-24T06:57:40.336Z,18.70
2019-01-24T07:00:12.325Z,13.13
2019-01-24T07:02:39.075Z,10.10
2019-01-24T07:05:05.518Z,14.70
2019-01-24T07:07:35.206Z,12.00
2019-01-24T07:10:05.630Z,12.97
2019-01-24T07:12:33.569Z,13.30
2019-01-24T07:15:00.372Z,15.57
2019-01-24T07:17:27.269Z,17.10
2019-01-24T07:19:54.238Z,14.80
2019-01-24T07:22:20.772Z,16.23
2019-01-24T07:24:47.613Z,14.40
2019-01-24T07:27:14.261Z,12.00
2019-01-24T07:29:40.922Z,15.70
2019-01-24T07:32:07.874Z,12.13
2019-01-24T07:34:34.719Z,15.47
2019-01-24T07:37:01.485Z,11.57
2019-01-24T07:39:28.281Z,14.03
2019-01-24T07:43:30.575Z,19.63
2019-01-24T07:45:57.195Z,12.53
2019-01-24T07:48:23.676Z,21.90
2019-01-24T07:50:50.197Z,15.97
2019-01-24T07:53:16.870Z,10.93
2019-01-24T07:55:44.435Z,14.17
2019-01-24T07:58:10.876Z,13.50
2019-01-24T08:00:37.422Z,13.77
2019-01-24T08:03:03.905Z,16.87
2019-01-24T08:05:30.538Z,14.00
2019-01-24T08:07:57.235Z,12.10
2019-01-24T08:10:23.758Z,15.80
2019-01-24T08:12:50.372Z,18.60
2019-01-24T08:15:19.794Z,16.27
2019-01-24T08:17:46.316Z,20.10
2019-01-24T08:20:19.117Z,17.93
2019-01-24T08:22:45.585Z,11.57
2019-01-24T08:25:13.079Z,12.70
2019-01-24T08:27:39.754Z,11.70
2019-01-24T08:30:11.823Z,15.70
2019-01-24T08:32:38.364Z,14.77
2019-01-24T08:35:07.172Z,10.90
2019-01-24T08:37:33.964Z,13.37
2019-01-24T08:40:00.621Z,13.00
2019-01-24T08:42:27.259Z,11.40
2019-01-24T08:44:53.749Z,11.73
2019-01-24T08:47:20.260Z,13.07
2019-01-24T08:49:46.793Z,12.03
2019-01-24T08:52:13.366Z,12.70
2019-01-24T08:54:39.846Z,11.90
2019-01-24T08:57:06.565Z,12.40
2019-01-24T08:59:33.067Z,11.17
2019-01-24T09:01:59.520Z,15.03
2019-01-24T09:04:26.002Z,11.67
2019-01-24T09:06:52.948Z,11.10
2019-01-24T09:09:19.363Z,11.70
2019-01-24T09:11:47.742Z,9.83
2019-01-24T09:14:14.200Z,10.53
2019-01-24T09:16:40.822Z,10.13
2019-01-24T09:19:07.382Z,12.37
2019-01-24T09:21:33.874Z,15.10
2019-01-24T09:24:00.448Z,11.13
2019-01-24T09:26:26.927Z,12.23
2019-01-24T09:28:53.378Z,12.97
2019-01-24T09:31:19.861Z,13.43
2019-01-24T09:33:46.531Z,11.10
2019-01-24T09:36:13.045Z,10.33
2019-01-24T09:38:39.521Z,9.80
2019-01-24T09:41:06.049Z,11.37
2019-01-24T09:43:32.479Z,9.10
2019-01-24T09:45:58.939Z,9.23
2019-01-24T09:48:25.459Z,8.57
2019-01-24T09:50:51.972Z,11.07
2019-01-24T09:53:18.418Z,11.17
2019-01-24T09:55:44.877Z,14.93
2019-01-24T09:58:11.375Z,10.00
2019-01-24T10:00:38.110Z,15.60
2019-01-24T10:03:04.781Z,19.50
2019-01-24T10:05:31.277Z,11.00
2019-01-24T10:07:57.889Z,9.03
2019-01-24T10:10:26.938Z,12.17
2019-01-24T10:12:54.479Z,10.10
2019-01-24T10:15:21.264Z,10.13
2019-01-24T10:18:44.423Z,9.97
2019-01-24T10:21:11.029Z,7.77
2019-01-24T10:23:39.841Z,11.80
2019-01-24T10:26:08.100Z,12.87
2019-01-24T10:28:34.531Z,18.40
2019-01-24T10:31:01.060Z,15.00
2019-01-24T10:33:27.680Z,7.70
2019-01-24T10:35:54.209Z,11.43
2019-01-24T10:38:20.656Z,9.70
2019-01-24T10:40:47.152Z,13.03
2019-01-24T10:43:14.735Z,11.10
2019-01-24T10:45:41.594Z,11.73
2019-01-24T10:48:08.147Z,7.37
2019-01-24T10:50:35.289Z,9.53
2019-01-24T10:53:03.256Z,11.03
2019-01-24T10:55:29.738Z,10.53
2019-01-24T10:57:58.822Z,9.27
2019-01-24T11:00:31.548Z,12.10
2019-01-24T11:02:58.948Z,9.40
2019-01-24T11:05:25.556Z,11.50
2019-01-24T11:07:52.073Z,14.23
2019-01-24T11:10:19.975Z,15.70
2019-01-24T11:12:47.298Z,14.90
2019-01-24T11:15:21.778Z,14.43
2019-01-24T11:17:49.414Z,12.60
2019-01-24T11:20:18.047Z,10.13
2019-01-24T11:22:46.079Z,8.83
2019-01-24T11:25:17.570Z,10.10
2019-01-24T11:27:44.113Z,12.47
2019-01-24T11:41:25.659Z,17.27
2019-01-24T11:43:52.561Z,13.77
2019-01-24T11:46:19.756Z,17.20
2019-01-24T11:48:46.819Z,14.10
2019-01-24T11:51:14.850Z,13.50
2019-01-24T11:53:41.814Z,13.50
2019-01-24T11:56:08.823Z,11.90
2019-01-24T11:58:35.470Z,8.67
2019-01-24T12:01:01.958Z,11.73
2019-01-24T12:03:28.419Z,13.07
2019-01-24T12:05:54.904Z,18.47
2019-01-24T12:08:21.404Z,13.03
2019-01-24T12:10:47.959Z,21.77
2019-01-24T12:13:14.420Z,20.33
2019-01-24T12:15:41.054Z,16.70
2019-01-24T12:18:07.720Z,16.70
2019-01-24T12:20:37.587Z,14.43
2019-01-24T12:23:04.151Z,17.03
2019-01-24T12:25:31.679Z,11.73
2019-01-24T12:27:58.262Z,12.90
2019-01-24T12:30:29.712Z,13.30
2019-01-24T12:32:57.260Z,13.00
2019-01-24T12:35:24.065Z,13.73
2019-01-24T12:37:51.649Z,13.67
2019-01-24T12:40:18.112Z,12.33
2019-01-24T12:42:44.728Z,11.67
2019-01-24T12:45:16.002Z,10.67
2019-01-24T12:47:42.555Z,19.17
2019-01-24T12:50:15.136Z,11.67
2019-01-24T12:52:43.300Z,11.43
2019-01-24T12:55:10.980Z,17.10
2019-01-24T12:57:37.461Z,10.97
2019-01-24T13:00:09.660Z,14.73
2019-01-24T13:02:37.350Z,10.83
2019-01-24T13:05:05.779Z,15.60
2019-01-24T13:07:32.258Z,11.47
2019-01-24T13:09:58.832Z,11.70
2019-01-24T13:12:25.302Z,14.87
2019-01-24T13:14:51.750Z,12.23
2019-01-24T13:17:18.381Z,14.07
2019-01-24T13:20:41.319Z,18.83
2019-01-24T13:23:07.829Z,11.53
2019-01-24T13:25:34.590Z,10.97
2019-01-24T13:28:01.098Z,12.83
2019-01-24T13:30:30.536Z,12.37
2019-01-24T13:32:57.032Z,10.43
2019-01-24T13:35:23.660Z,16.80
2019-01-24T13:37:51.126Z,13.73
2019-01-24T13:40:23.925Z,15.00
2019-01-24T13:42:51.547Z,10.30
2019-01-24T13:45:41.004Z,11.10
2019-01-24T13:48:07.624Z,13.30
2019-01-24T13:50:34.068Z,9.80
2019-01-24T13:53:00.753Z,11.90
2019-01-24T13:55:27.276Z,10.77
2019-01-24T13:57:54.851Z,11.53
2019-01-24T14:00:26.683Z,15.40
2019-01-24T14:02:58.626Z,11.53
2019-01-24T14:05:28.140Z,12.57
2019-01-24T14:07:54.794Z,11.57
2019-01-24T14:10:23.354Z,17.27
2019-01-24T14:12:50.123Z,10.40
2019-01-24T14:15:19.310Z,11.50
2019-01-24T14:17:46.211Z,16.33
2019-01-24T14:20:17.622Z,11.23
2019-01-24T14:22:44.759Z,17.57
2019-01-24T14:25:15.867Z,13.40
2019-01-24T14:27:42.413Z,10.33
2019-01-24T14:30:14.528Z,9.93
2019-01-24T14:32:41.383Z,12.37
2019-01-24T14:35:07.992Z,8.17
2019-01-24T14:37:39.747Z,12.27
2019-01-24T14:40:07.326Z,11.60
2019-01-24T14:42:33.799Z,10.50
2019-01-24T14:45:00.268Z,16.03
2019-01-24T14:47:26.764Z,11.13
2019-01-24T14:50:50.132Z,13.37
2019-01-24T14:53:16.686Z,12.73
2019-01-24T14:55:43.155Z,14.47
2019-01-24T14:58:09.645Z,11.93
2019-01-24T15:00:41.513Z,13.57
2019-01-24T15:03:08.070Z,12.43
2019-01-24T15:05:34.608Z,13.70
2019-01-24T15:08:01.284Z,14.40
2019-01-24T15:10:27.786Z,15.83
2019-01-24T15:12:54.335Z,16.03
2019-01-24T15:15:21.917Z,17.13
2019-01-24T15:17:48.411Z,12.83
2019-01-24T15:20:16.745Z,17.53
2019-01-24T15:22:43.168Z,21.47
2019-01-24T15:25:13.127Z,18.03
2019-01-24T15:27:39.565Z,17.13
2019-01-24T15:30:11.555Z,26.47
2019-01-24T15:32:38.228Z,17.83
2019-01-24T15:35:04.879Z,18.30
2019-01-24T15:37:31.339Z,24.17
2019-01-24T15:39:57.935Z,18.10
2019-01-24T15:42:25.041Z,21.67
2019-01-24T15:44:51.963Z,25.83
2019-01-24T15:47:18.702Z,16.30
2019-01-24T15:49:45.174Z,17.57
2019-01-24T15:52:11.620Z,25.33
2019-01-24T15:54:38.271Z,26.40
2019-01-24T15:57:04.763Z,27.27
2019-01-24T15:59:31.421Z,29.50
2019-01-24T16:01:57.984Z,29.73
2019-01-24T16:04:24.430Z,24.97
2019-01-24T16:06:50.960Z,29.40
2019-01-24T16:09:17.530Z,34.40
2019-01-24T16:11:44.061Z,29.60
2019-01-24T16:14:10.723Z,41.30
2019-01-24T16:16:37.217Z,41.53
2019-01-24T16:19:03.729Z,38.17
2019-01-24T16:21:30.197Z,41.87
2019-01-24T16:23:56.786Z,39.33
2019-01-24T16:26:23.391Z,42.93
2019-01-24T16:28:51.069Z,35.57
2019-01-24T16:31:17.673Z,31.03
2019-01-24T16:33:44.274Z,33.80
2019-01-24T16:36:10.942Z,35.37
2019-01-24T16:38:37.572Z,32.70
2019-01-24T16:41:04.435Z,27.93
2019-01-24T16:43:31.303Z,31.17
2019-01-24T16:45:57.936Z,27.80
2019-01-24T16:48:24.514Z,24.53
2019-01-24T16:50:51.017Z,27.67
2019-01-24T16:53:17.463Z,28.70
2019-01-24T16:55:43.908Z,26.83
2019-01-24T16:58:10.387Z,26.87
2019-01-24T17:00:41.741Z,22.63
2019-01-24T17:03:09.504Z,26.40
2019-01-24T17:05:37.912Z,21.97
2019-01-24T17:08:05.423Z,25.73
2019-01-24T17:10:31.943Z,24.63
2019-01-24T17:12:58.477Z,27.70
2019-01-24T17:15:25.518Z,24.63
2019-01-24T17:17:52.361Z,30.07
2019-01-24T17:20:23.152Z,20.60
2019-01-24T17:22:49.781Z,33.07
2019-01-24T17:25:17.712Z,25.73
2019-01-24T17:27:46.356Z,30.43
2019-01-24T17:30:18.509Z,32.37
2019-01-24T17:32:45.209Z,26.20
2019-01-24T17:35:11.814Z,27.90
2019-01-24T17:37:40.310Z,29.43
2019-01-24T17:40:13.831Z,25.07
2019-01-24T17:42:40.530Z,23.07
2019-01-24T17:45:12.300Z,22.67
2019-01-24T17:47:38.746Z,23.10
2019-01-24T17:50:09.963Z,19.37
2019-01-24T17:52:36.435Z,22.30
2019-01-24T17:55:08.590Z,23.40
2019-01-24T17:57:38.556Z,22.73
2019-01-24T18:00:11.463Z,18.23
2019-01-24T18:02:40.114Z,15.60
2019-01-24T18:05:08.650Z,16.93
2019-01-24T18:07:35.493Z,15.77
2019-01-24T18:10:13.885Z,21.53
2019-01-24T18:12:36.142Z,17.10
2019-01-24T18:15:09.890Z,18.90
2019-01-24T18:17:36.556Z,16.13
2019-01-24T18:20:08.941Z,18.00
2019-01-24T18:22:35.826Z,16.67
2019-01-24T18:25:04.374Z,21.00
2019-01-24T18:27:31.077Z,17.13
2019-01-24T18:29:57.675Z,18.87
2019-01-24T18:32:24.327Z,17.43
2019-01-24T18:34:50.826Z,16.40
2019-01-24T18:37:17.295Z,24.90
2019-01-24T18:39:43.873Z,17.87
2019-01-24T18:42:10.973Z,14.10
2019-01-24T18:44:37.628Z,20.73
2019-01-24T18:47:04.471Z,22.07
2019-01-24T18:49:31.246Z,19.13
2019-01-24T18:51:57.822Z,20.33
2019-01-24T18:54:24.268Z,17.83
2019-01-24T18:56:50.765Z,27.90
2019-01-24T18:59:17.555Z,15.27
2019-01-24T19:01:44.052Z,19.13
2019-01-24T19:04:10.518Z,19.77
2019-01-24T19:06:52.186Z,16.67
2019-01-24T19:09:18.693Z,17.93
2019-01-24T19:11:46.916Z,22.03
2019-01-24T19:14:13.904Z,20.70
2019-01-24T19:16:40.370Z,18.97
2019-01-24T19:19:06.969Z,19.47
2019-01-24T19:21:33.532Z,20.53
2019-01-24T19:23:59.973Z,16.70
2019-01-24T19:26:27.039Z,21.80
2019-01-24T19:28:53.760Z,21.93
2019-01-24T19:31:20.210Z,19.47
2019-01-24T19:33:46.782Z,25.97
2019-01-24T19:36:13.568Z,24.43
2019-01-24T19:38:40.034Z,22.23
2019-01-24T19:41:07.871Z,20.50
2019-01-24T19:43:34.339Z,21.90
2019-01-24T19:46:00.779Z,21.17
2019-01-24T19:48:27.401Z,21.90
2019-01-24T19:50:53.882Z,23.43
2019-01-24T19:53:20.361Z,19.57
2019-01-24T19:55:47.488Z,15.13
2019-01-24T19:58:14.136Z,20.80
2019-01-24T20:00:40.605Z,19.03
2019-01-24T20:03:07.535Z,24.07
2019-01-24T20:05:34.046Z,19.53
2019-01-24T20:08:00.725Z,26.10
2019-01-24T20:10:28.630Z,20.73
2019-01-24T20:12:55.388Z,22.47
2019-01-24T20:15:25.188Z,21.37
2019-01-24T20:17:51.821Z,21.90
2019-01-24T20:20:18.734Z,19.93
2019-01-24T20:22:45.388Z,24.87
2019-01-24T20:25:21.001Z,20.17
2019-01-24T20:27:48.654Z,23.47
2019-01-24T20:30:18.725Z,24.07
2019-01-24T20:32:45.358Z,20.43
2019-01-24T20:35:17.671Z,16.27
2019-01-24T20:37:47.207Z,22.47
2019-01-24T20:40:13.871Z,20.27
2019-01-24T20:42:40.948Z,23.33
2019-01-24T20:45:10.322Z,25.27
2019-01-24T20:47:36.880Z,24.63
2019-01-24T20:50:09.646Z,23.13
2019-01-24T20:52:36.335Z,22.40
2019-01-24T20:55:23.204Z,39.80
2019-01-24T20:57:50.549Z,22.07
2019-01-24T21:00:21.392Z,19.63
2019-01-24T21:02:48.582Z,25.73
2019-01-24T21:05:19.304Z,21.60
2019-01-24T21:07:46.116Z,24.97
2019-01-24T21:10:16.672Z,27.33
2019-01-24T21:12:43.416Z,26.50
2019-01-24T21:15:13.745Z,16.63
2019-01-24T21:17:40.444Z,20.43
2019-01-24T21:20:12.453Z,24.27
2019-01-24T21:22:39.028Z,24.67
2019-01-24T21:25:10.440Z,21.97
2019-01-24T21:27:37.052Z,20.33
2019-01-24T21:30:09.348Z,24.83
2019-01-24T21:32:36.012Z,24.97
2019-01-24T21:35:06.284Z,22.53
2019-01-24T21:37:32.854Z,25.03
2019-01-24T21:39:59.469Z,23.90
2019-01-24T21:42:26.247Z,23.47
2019-01-24T21:44:52.798Z,23.10
2019-01-24T21:47:22.407Z,29.93
2019-01-24T21:49:49.015Z,21.53
2019-01-24T21:52:17.509Z,26.37
2019-01-24T21:54:44.200Z,19.70
2019-01-24T21:57:10.813Z,21.67
2019-01-24T21:59:37.793Z,28.07
2019-01-24T22:02:06.005Z,23.67
2019-01-24T22:04:32.656Z,19.47
2019-01-24T22:06:59.332Z,21.77
2019-01-24T22:09:29.207Z,18.43
2019-01-24T22:11:54.484Z,17.43
2019-01-24T22:14:21.085Z,18.57
2019-01-24T22:16:48.815Z,24.10
2019-01-24T22:19:15.417Z,21.23
2019-01-24T22:21:42.218Z,17.90
2019-01-24T22:24:08.865Z,18.60
2019-01-24T22:26:35.417Z,20.23
2019-01-24T22:29:02.031Z,20.17
2019-01-24T22:31:28.775Z,17.60
2019-01-24T22:33:55.383Z,21.20
2019-01-24T22:36:22.093Z,12.30
2019-01-24T22:38:48.728Z,16.80
2019-01-24T22:41:15.343Z,15.43
2019-01-24T22:43:41.935Z,16.43
2019-01-24T22:46:08.632Z,19.70
2019-01-24T22:48:35.218Z,16.60
2019-01-24T22:51:01.801Z,17.27
2019-01-24T22:53:28.463Z,17.20
2019-01-24T22:55:55.304Z,19.17
2019-01-24T22:58:21.945Z,19.70
2019-01-24T23:00:54.719Z,15.27
2019-01-24T23:03:29.172Z,17.70
2019-01-24T23:05:55.843Z,17.87
2019-01-24T23:08:22.391Z,17.23
2019-01-24T23:10:48.962Z,14.30
2019-01-24T23:13:15.556Z,15.20
2019-01-24T23:15:42.166Z,16.73
2019-01-24T23:18:08.801Z,20.10
2019-01-24T23:20:35.573Z,17.40
2019-01-24T23:23:02.811Z,17.43
2019-01-24T23:25:29.563Z,15.80
2019-01-24T23:27:56.317Z,17.70
2019-01-24T23:30:22.955Z,18.37
2019-01-24T23:32:49.969Z,17.17
2019-01-24T23:35:16.675Z,19.50
2019-01-24T23:37:43.372Z,18.30
2019-01-24T23:40:10.904Z,22.47
2019-01-24T23:42:37.469Z,17.93
2019-01-24T23:45:07.982Z,18.93
2019-01-24T23:47:34.568Z,15.90
2019-01-24T23:50:01.231Z,12.80
2019-01-24T23:52:27.999Z,19.37
2019-01-24T23:54:55.704Z,16.60
2019-01-24T23:57:23.942Z,15.37
2019-01-24T23:59:50.811Z,15.13
